sensor_id;sensor_type;location;lat;lon;timestamp;P1;durP1;ratioP1;P2;durP2;ratioP2
50815;SDS011;39717;47.324;8.788;2023-05-10T00:01:00;0.40;;;0.40;;
50815;SDS011;39717;47.324;8.788;2023-05-10T00:03:26;0.70;;;0.50;;
50815;SDS011;39717;47.324;8.788;2023-05-10T00:05:52;0.40;;;0.30;;
50815;SDS011;39717;47.324;8.788;2023-05-10T00:08:18;0.20;;;0.20;;
50815;SDS011;39717;47.324;8.788;2023-05-10T00:10:45;0.87;;;0.50;;
50815;SDS011;39717;47.324;8.788;2023-05-10T00:13:12;0.80;;;0.47;;
50815;SDS011;39717;47.324;8.788;2023-05-10T00:15:38;0.70;;;0.67;;
50815;SDS011;39717;47.324;8.788;2023-05-10T00:18:04;0.37;;;0.37;;
50815;SDS011;39717;47.324;8.788;2023-05-10T00:20:30;0.50;;;0.50;;
50815;SDS011;39717;47.324;8.788;2023-05-10T00:22:57;0.30;;;0.30;;
50815;SDS011;39717;47.324;8.788;2023-05-10T00:25:23;0.77;;;0.50;;
50815;SDS011;39717;47.324;8.788;2023-05-10T00:27:49;0.40;;;0.40;;
50815;SDS011;39717;47.324;8.788;2023-05-10T00:30:16;0.30;;;0.30;;
50815;SDS011;39717;47.324;8.788;2023-05-10T00:32:44;0.40;;;0.40;;
50815;SDS011;39717;47.324;8.788;2023-05-10T00:35:10;0.40;;;0.40;;
50815;SDS011;39717;47.324;8.788;2023-05-10T00:37:36;1.27;;;0.43;;
50815;SDS011;39717;47.324;8.788;2023-05-10T00:40:02;0.30;;;0.30;;
50815;SDS011;39717;47.324;8.788;2023-05-10T00:42:28;0.50;;;0.50;;
50815;SDS011;39717;47.324;8.788;2023-05-10T00:44:55;0.30;;;0.30;;
50815;SDS011;39717;47.324;8.788;2023-05-10T00:47:22;0.40;;;0.40;;
50815;SDS011;39717;47.324;8.788;2023-05-10T00:49:48;0.40;;;0.40;;
50815;SDS011;39717;47.324;8.788;2023-05-10T00:52:14;0.50;;;0.50;;
50815;SDS011;39717;47.324;8.788;2023-05-10T00:54:41;0.50;;;0.50;;
50815;SDS011;39717;47.324;8.788;2023-05-10T00:57:07;0.57;;;0.57;;
50815;SDS011;39717;47.324;8.788;2023-05-10T00:59:33;0.47;;;0.47;;
50815;SDS011;39717;47.324;8.788;2023-05-10T01:01:59;0.50;;;0.50;;
50815;SDS011;39717;47.324;8.788;2023-05-10T01:04:26;0.40;;;0.40;;
50815;SDS011;39717;47.324;8.788;2023-05-10T01:06:53;0.50;;;0.50;;
50815;SDS011;39717;47.324;8.788;2023-05-10T01:09:20;0.73;;;0.53;;
50815;SDS011;39717;47.324;8.788;2023-05-10T01:11:47;0.47;;;0.47;;
50815;SDS011;39717;47.324;8.788;2023-05-10T01:14:14;0.40;;;0.40;;
50815;SDS011;39717;47.324;8.788;2023-05-10T01:16:41;1.63;;;0.60;;
50815;SDS011;39717;47.324;8.788;2023-05-10T01:19:11;0.57;;;0.57;;
50815;SDS011;39717;47.324;8.788;2023-05-10T01:21:48;0.50;;;0.50;;
50815;SDS011;39717;47.324;8.788;2023-05-10T01:34:42;0.50;;;0.50;;
50815;SDS011;39717;47.324;8.788;2023-05-10T01:37:14;0.40;;;0.40;;
50815;SDS011;39717;47.324;8.788;2023-05-10T01:39:45;0.50;;;0.50;;
50815;SDS011;39717;47.324;8.788;2023-05-10T01:42:21;0.47;;;0.40;;
50815;SDS011;39717;47.324;8.788;2023-05-10T01:44:52;0.40;;;0.40;;
50815;SDS011;39717;47.324;8.788;2023-05-10T01:49:53;0.63;;;0.63;;
50815;SDS011;39717;47.324;8.788;2023-05-10T01:52:25;2.77;;;0.60;;
50815;SDS011;39717;47.324;8.788;2023-05-10T01:54:56;0.40;;;0.40;;
50815;SDS011;39717;47.324;8.788;2023-05-10T01:57:25;0.53;;;0.53;;
50815;SDS011;39717;47.324;8.788;2023-05-10T01:59:53;0.57;;;0.57;;
50815;SDS011;39717;47.324;8.788;2023-05-10T02:02:20;0.40;;;0.40;;
50815;SDS011;39717;47.324;8.788;2023-05-10T02:04:47;0.50;;;0.50;;
50815;SDS011;39717;47.324;8.788;2023-05-10T02:07:15;0.60;;;0.60;;
50815;SDS011;39717;47.324;8.788;2023-05-10T02:09:43;0.60;;;0.60;;
50815;SDS011;39717;47.324;8.788;2023-05-10T02:12:12;0.60;;;0.60;;
50815;SDS011;39717;47.324;8.788;2023-05-10T02:14:39;0.70;;;0.70;;
50815;SDS011;39717;47.324;8.788;2023-05-10T02:17:06;0.37;;;0.37;;
50815;SDS011;39717;47.324;8.788;2023-05-10T02:19:33;0.77;;;0.50;;
50815;SDS011;39717;47.324;8.788;2023-05-10T02:22:00;0.60;;;0.60;;
50815;SDS011;39717;47.324;8.788;2023-05-10T02:24:26;0.70;;;0.70;;
50815;SDS011;39717;47.324;8.788;2023-05-10T02:26:53;0.47;;;0.47;;
50815;SDS011;39717;47.324;8.788;2023-05-10T02:29:23;0.57;;;0.57;;
50815;SDS011;39717;47.324;8.788;2023-05-10T02:31:54;1.97;;;0.50;;
50815;SDS011;39717;47.324;8.788;2023-05-10T02:34:21;0.50;;;0.50;;
50815;SDS011;39717;47.324;8.788;2023-05-10T02:36:47;0.50;;;0.50;;
50815;SDS011;39717;47.324;8.788;2023-05-10T02:39:15;0.63;;;0.63;;
50815;SDS011;39717;47.324;8.788;2023-05-10T02:41:42;0.70;;;0.70;;
50815;SDS011;39717;47.324;8.788;2023-05-10T02:44:09;0.80;;;0.80;;
50815;SDS011;39717;47.324;8.788;2023-05-10T02:46:35;0.60;;;0.60;;
50815;SDS011;39717;47.324;8.788;2023-05-10T02:49:02;0.53;;;0.53;;
50815;SDS011;39717;47.324;8.788;2023-05-10T02:51:30;0.50;;;0.50;;
50815;SDS011;39717;47.324;8.788;2023-05-10T02:53:57;2.73;;;0.70;;
50815;SDS011;39717;47.324;8.788;2023-05-10T02:56:25;0.70;;;0.70;;
50815;SDS011;39717;47.324;8.788;2023-05-10T02:58:54;0.57;;;0.57;;
50815;SDS011;39717;47.324;8.788;2023-05-10T03:01:21;0.70;;;0.70;;
50815;SDS011;39717;47.324;8.788;2023-05-10T03:03:47;0.60;;;0.60;;
50815;SDS011;39717;47.324;8.788;2023-05-10T03:06:13;3.70;;;0.70;;
50815;SDS011;39717;47.324;8.788;2023-05-10T03:08:42;0.60;;;0.60;;
50815;SDS011;39717;47.324;8.788;2023-05-10T03:14:37;0.60;;;0.60;;
50815;SDS011;39717;47.324;8.788;2023-05-10T03:16:33;0.50;;;0.50;;
50815;SDS011;39717;47.324;8.788;2023-05-10T03:19:08;0.60;;;0.60;;
50815;SDS011;39717;47.324;8.788;2023-05-10T03:21:35;1.03;;;0.80;;
50815;SDS011;39717;47.324;8.788;2023-05-10T03:24:07;0.60;;;0.60;;
50815;SDS011;39717;47.324;8.788;2023-05-10T03:26:34;0.60;;;0.60;;
50815;SDS011;39717;47.324;8.788;2023-05-10T03:29:00;0.60;;;0.60;;
50815;SDS011;39717;47.324;8.788;2023-05-10T03:31:27;0.53;;;0.53;;
50815;SDS011;39717;47.324;8.788;2023-05-10T03:33:54;0.73;;;0.73;;
50815;SDS011;39717;47.324;8.788;2023-05-10T03:36:20;0.83;;;0.70;;
50815;SDS011;39717;47.324;8.788;2023-05-10T03:38:46;0.93;;;0.90;;
50815;SDS011;39717;47.324;8.788;2023-05-10T03:41:12;0.70;;;0.70;;
50815;SDS011;39717;47.324;8.788;2023-05-10T03:43:39;0.80;;;0.80;;
50815;SDS011;39717;47.324;8.788;2023-05-10T03:46:06;0.80;;;0.80;;
50815;SDS011;39717;47.324;8.788;2023-05-10T03:48:32;0.70;;;0.70;;
50815;SDS011;39717;47.324;8.788;2023-05-10T03:50:59;0.70;;;0.70;;
50815;SDS011;39717;47.324;8.788;2023-05-10T03:53:25;0.60;;;0.60;;
50815;SDS011;39717;47.324;8.788;2023-05-10T03:55:52;0.70;;;0.70;;
50815;SDS011;39717;47.324;8.788;2023-05-10T03:58:18;0.90;;;0.87;;
50815;SDS011;39717;47.324;8.788;2023-05-10T04:00:44;2.93;;;1.10;;
50815;SDS011;39717;47.324;8.788;2023-05-10T04:03:11;1.33;;;0.90;;
50815;SDS011;39717;47.324;8.788;2023-05-10T04:05:37;1.00;;;0.90;;
50815;SDS011;39717;47.324;8.788;2023-05-10T04:08:03;1.00;;;1.00;;
50815;SDS011;39717;47.324;8.788;2023-05-10T04:10:30;0.80;;;0.80;;
50815;SDS011;39717;47.324;8.788;2023-05-10T04:12:56;1.10;;;1.03;;
50815;SDS011;39717;47.324;8.788;2023-05-10T04:15:22;0.83;;;0.83;;
50815;SDS011;39717;47.324;8.788;2023-05-10T04:17:49;1.37;;;1.27;;
50815;SDS011;39717;47.324;8.788;2023-05-10T04:20:16;0.97;;;0.97;;
50815;SDS011;39717;47.324;8.788;2023-05-10T04:22:42;0.90;;;0.90;;
50815;SDS011;39717;47.324;8.788;2023-05-10T04:25:08;1.90;;;1.30;;
50815;SDS011;39717;47.324;8.788;2023-05-10T04:27:35;1.40;;;1.30;;
50815;SDS011;39717;47.324;8.788;2023-05-10T04:30:01;1.40;;;1.10;;
50815;SDS011;39717;47.324;8.788;2023-05-10T04:32:28;1.03;;;0.93;;
50815;SDS011;39717;47.324;8.788;2023-05-10T04:34:54;0.90;;;0.90;;
50815;SDS011;39717;47.324;8.788;2023-05-10T04:37:20;0.80;;;0.80;;
50815;SDS011;39717;47.324;8.788;2023-05-10T04:39:48;1.23;;;1.00;;
50815;SDS011;39717;47.324;8.788;2023-05-10T04:42:14;1.00;;;1.00;;
50815;SDS011;39717;47.324;8.788;2023-05-10T04:44:40;2.93;;;1.20;;
50815;SDS011;39717;47.324;8.788;2023-05-10T04:47:06;0.80;;;0.80;;
50815;SDS011;39717;47.324;8.788;2023-05-10T04:49:33;0.87;;;0.87;;
50815;SDS011;39717;47.324;8.788;2023-05-10T04:51:59;1.93;;;0.80;;
50815;SDS011;39717;47.324;8.788;2023-05-10T04:54:25;1.10;;;1.00;;
50815;SDS011;39717;47.324;8.788;2023-05-10T04:56:51;0.77;;;0.77;;
50815;SDS011;39717;47.324;8.788;2023-05-10T04:59:17;1.23;;;1.13;;
50815;SDS011;39717;47.324;8.788;2023-05-10T05:01:43;0.83;;;0.83;;
50815;SDS011;39717;47.324;8.788;2023-05-10T05:04:09;1.40;;;1.00;;
50815;SDS011;39717;47.324;8.788;2023-05-10T05:06:36;0.90;;;0.90;;
50815;SDS011;39717;47.324;8.788;2023-05-10T05:09:02;0.60;;;0.60;;
50815;SDS011;39717;47.324;8.788;2023-05-10T05:11:28;0.70;;;0.70;;
50815;SDS011;39717;47.324;8.788;2023-05-10T05:13:54;1.87;;;0.90;;
50815;SDS011;39717;47.324;8.788;2023-05-10T05:16:20;0.80;;;0.80;;
50815;SDS011;39717;47.324;8.788;2023-05-10T05:18:46;0.60;;;0.60;;
50815;SDS011;39717;47.324;8.788;2023-05-10T05:21:13;0.50;;;0.50;;
50815;SDS011;39717;47.324;8.788;2023-05-10T05:23:40;0.50;;;0.50;;
50815;SDS011;39717;47.324;8.788;2023-05-10T05:26:06;0.70;;;0.70;;
50815;SDS011;39717;47.324;8.788;2023-05-10T05:28:32;2.43;;;0.60;;
50815;SDS011;39717;47.324;8.788;2023-05-10T05:31:02;0.70;;;0.70;;
50815;SDS011;39717;47.324;8.788;2023-05-10T05:33:30;0.50;;;0.50;;
50815;SDS011;39717;47.324;8.788;2023-05-10T05:35:56;0.60;;;0.60;;
50815;SDS011;39717;47.324;8.788;2023-05-10T05:38:22;0.80;;;0.80;;
50815;SDS011;39717;47.324;8.788;2023-05-10T05:40:48;0.80;;;0.80;;
50815;SDS011;39717;47.324;8.788;2023-05-10T05:43:15;0.60;;;0.60;;
50815;SDS011;39717;47.324;8.788;2023-05-10T05:45:41;0.80;;;0.70;;
50815;SDS011;39717;47.324;8.788;2023-05-10T05:48:07;0.80;;;0.80;;
50815;SDS011;39717;47.324;8.788;2023-05-10T05:50:33;0.60;;;0.60;;
50815;SDS011;39717;47.324;8.788;2023-05-10T05:52:59;0.50;;;0.50;;
50815;SDS011;39717;47.324;8.788;2023-05-10T05:55:27;0.70;;;0.70;;
50815;SDS011;39717;47.324;8.788;2023-05-10T05:57:54;1.13;;;1.00;;
50815;SDS011;39717;47.324;8.788;2023-05-10T06:00:21;1.20;;;1.10;;
50815;SDS011;39717;47.324;8.788;2023-05-10T06:02:47;1.30;;;1.10;;
50815;SDS011;39717;47.324;8.788;2023-05-10T06:05:14;1.07;;;1.00;;
50815;SDS011;39717;47.324;8.788;2023-05-10T06:07:40;1.00;;;0.90;;
50815;SDS011;39717;47.324;8.788;2023-05-10T06:10:09;2.77;;;0.93;;
50815;SDS011;39717;47.324;8.788;2023-05-10T06:12:36;0.80;;;0.80;;
50815;SDS011;39717;47.324;8.788;2023-05-10T06:15:02;1.17;;;1.07;;
50815;SDS011;39717;47.324;8.788;2023-05-10T06:17:28;1.50;;;1.20;;
50815;SDS011;39717;47.324;8.788;2023-05-10T06:19:55;0.80;;;0.80;;
50815;SDS011;39717;47.324;8.788;2023-05-10T06:22:21;2.37;;;0.90;;
50815;SDS011;39717;47.324;8.788;2023-05-10T06:24:48;0.77;;;0.77;;
50815;SDS011;39717;47.324;8.788;2023-05-10T06:27:15;0.73;;;0.73;;
50815;SDS011;39717;47.324;8.788;2023-05-10T06:29:41;0.93;;;0.93;;
50815;SDS011;39717;47.324;8.788;2023-05-10T06:32:07;0.67;;;0.67;;
50815;SDS011;39717;47.324;8.788;2023-05-10T06:34:33;0.90;;;0.90;;
50815;SDS011;39717;47.324;8.788;2023-05-10T06:36:59;0.70;;;0.70;;
50815;SDS011;39717;47.324;8.788;2023-05-10T06:39:25;0.70;;;0.70;;
50815;SDS011;39717;47.324;8.788;2023-05-10T06:41:51;0.87;;;0.87;;
50815;SDS011;39717;47.324;8.788;2023-05-10T06:44:17;0.80;;;0.77;;
50815;SDS011;39717;47.324;8.788;2023-05-10T06:46:43;1.47;;;1.03;;
50815;SDS011;39717;47.324;8.788;2023-05-10T06:49:10;0.93;;;0.80;;
50815;SDS011;39717;47.324;8.788;2023-05-10T06:51:36;0.90;;;0.90;;
50815;SDS011;39717;47.324;8.788;2023-05-10T06:54:02;0.80;;;0.80;;
50815;SDS011;39717;47.324;8.788;2023-05-10T06:56:28;0.93;;;0.90;;
50815;SDS011;39717;47.324;8.788;2023-05-10T06:58:54;0.80;;;0.80;;
50815;SDS011;39717;47.324;8.788;2023-05-10T07:01:20;1.53;;;0.90;;
50815;SDS011;39717;47.324;8.788;2023-05-10T07:03:46;0.93;;;0.80;;
50815;SDS011;39717;47.324;8.788;2023-05-10T07:06:13;0.70;;;0.70;;
50815;SDS011;39717;47.324;8.788;2023-05-10T07:08:39;0.93;;;0.93;;
50815;SDS011;39717;47.324;8.788;2023-05-10T07:11:06;0.80;;;0.80;;
50815;SDS011;39717;47.324;8.788;2023-05-10T07:13:32;0.87;;;0.87;;
50815;SDS011;39717;47.324;8.788;2023-05-10T07:15:59;1.27;;;0.90;;
50815;SDS011;39717;47.324;8.788;2023-05-10T07:18:25;0.83;;;0.83;;
50815;SDS011;39717;47.324;8.788;2023-05-10T07:20:52;1.10;;;1.10;;
50815;SDS011;39717;47.324;8.788;2023-05-10T07:23:18;1.13;;;1.00;;
50815;SDS011;39717;47.324;8.788;2023-05-10T07:25:47;1.13;;;1.10;;
50815;SDS011;39717;47.324;8.788;2023-05-10T07:28:14;1.17;;;1.00;;
50815;SDS011;39717;47.324;8.788;2023-05-10T07:30:41;0.93;;;0.93;;
50815;SDS011;39717;47.324;8.788;2023-05-10T07:33:08;1.03;;;1.00;;
50815;SDS011;39717;47.324;8.788;2023-05-10T07:35:35;1.30;;;1.20;;
50815;SDS011;39717;47.324;8.788;2023-05-10T07:38:02;1.30;;;1.20;;
50815;SDS011;39717;47.324;8.788;2023-05-10T07:40:28;1.77;;;1.60;;
50815;SDS011;39717;47.324;8.788;2023-05-10T07:42:54;1.30;;;1.20;;
50815;SDS011;39717;47.324;8.788;2023-05-10T07:45:21;1.30;;;1.20;;
50815;SDS011;39717;47.324;8.788;2023-05-10T07:47:48;1.23;;;1.13;;
50815;SDS011;39717;47.324;8.788;2023-05-10T07:50:14;1.07;;;1.00;;
50815;SDS011;39717;47.324;8.788;2023-05-10T07:52:40;1.30;;;0.90;;
50815;SDS011;39717;47.324;8.788;2023-05-10T07:55:07;1.30;;;1.20;;
50815;SDS011;39717;47.324;8.788;2023-05-10T07:57:33;1.80;;;1.20;;
50815;SDS011;39717;47.324;8.788;2023-05-10T08:00:00;1.43;;;1.33;;
50815;SDS011;39717;47.324;8.788;2023-05-10T08:02:26;2.83;;;1.40;;
50815;SDS011;39717;47.324;8.788;2023-05-10T08:04:52;1.50;;;1.30;;
50815;SDS011;39717;47.324;8.788;2023-05-10T08:07:19;1.07;;;0.97;;
50815;SDS011;39717;47.324;8.788;2023-05-10T08:09:45;1.13;;;1.00;;
50815;SDS011;39717;47.324;8.788;2023-05-10T08:12:11;0.80;;;0.80;;
50815;SDS011;39717;47.324;8.788;2023-05-10T08:14:37;1.10;;;1.00;;
50815;SDS011;39717;47.324;8.788;2023-05-10T08:17:04;0.53;;;0.53;;
50815;SDS011;39717;47.324;8.788;2023-05-10T08:19:30;1.10;;;1.00;;
50815;SDS011;39717;47.324;8.788;2023-05-10T08:21:56;1.00;;;0.90;;
50815;SDS011;39717;47.324;8.788;2023-05-10T08:24:22;0.70;;;0.70;;
50815;SDS011;39717;47.324;8.788;2023-05-10T08:26:49;1.93;;;0.90;;
50815;SDS011;39717;47.324;8.788;2023-05-10T08:29:15;0.97;;;0.97;;
50815;SDS011;39717;47.324;8.788;2023-05-10T08:31:42;0.30;;;0.30;;
50815;SDS011;39717;47.324;8.788;2023-05-10T08:34:08;1.40;;;0.97;;
50815;SDS011;39717;47.324;8.788;2023-05-10T08:36:34;1.50;;;1.10;;
50815;SDS011;39717;47.324;8.788;2023-05-10T08:39:01;1.00;;;1.00;;
50815;SDS011;39717;47.324;8.788;2023-05-10T08:41:27;1.37;;;1.27;;
50815;SDS011;39717;47.324;8.788;2023-05-10T08:43:54;1.20;;;1.10;;
50815;SDS011;39717;47.324;8.788;2023-05-10T08:46:21;1.33;;;1.23;;
50815;SDS011;39717;47.324;8.788;2023-05-10T08:48:48;1.20;;;1.10;;
50815;SDS011;39717;47.324;8.788;2023-05-10T08:51:17;1.60;;;1.07;;
50815;SDS011;39717;47.324;8.788;2023-05-10T08:53:45;1.37;;;1.10;;
50815;SDS011;39717;47.324;8.788;2023-05-10T08:56:11;1.30;;;1.20;;
50815;SDS011;39717;47.324;8.788;2023-05-10T08:58:38;2.40;;;1.30;;
50815;SDS011;39717;47.324;8.788;2023-05-10T09:01:04;1.63;;;1.30;;
50815;SDS011;39717;47.324;8.788;2023-05-10T09:03:32;1.20;;;1.00;;
50815;SDS011;39717;47.324;8.788;2023-05-10T09:05:58;1.30;;;1.20;;
50815;SDS011;39717;47.324;8.788;2023-05-10T09:08:24;2.17;;;1.37;;
50815;SDS011;39717;47.324;8.788;2023-05-10T09:10:51;2.10;;;1.17;;
50815;SDS011;39717;47.324;8.788;2023-05-10T09:13:18;2.00;;;1.43;;
50815;SDS011;39717;47.324;8.788;2023-05-10T09:15:45;1.63;;;1.20;;
50815;SDS011;39717;47.324;8.788;2023-05-10T09:18:11;2.23;;;1.40;;
50815;SDS011;39717;47.324;8.788;2023-05-10T09:20:38;1.40;;;1.30;;
50815;SDS011;39717;47.324;8.788;2023-05-10T09:23:04;1.40;;;1.30;;
50815;SDS011;39717;47.324;8.788;2023-05-10T09:25:31;2.07;;;1.37;;
50815;SDS011;39717;47.324;8.788;2023-05-10T09:27:58;1.50;;;1.40;;
50815;SDS011;39717;47.324;8.788;2023-05-10T09:30:27;3.20;;;1.60;;
50815;SDS011;39717;47.324;8.788;2023-05-10T09:32:54;1.63;;;1.50;;
50815;SDS011;39717;47.324;8.788;2023-05-10T09:35:21;1.33;;;1.23;;
50815;SDS011;39717;47.324;8.788;2023-05-10T09:37:49;3.00;;;1.27;;
50815;SDS011;39717;47.324;8.788;2023-05-10T09:40:25;2.07;;;1.50;;
50815;SDS011;39717;47.324;8.788;2023-05-10T09:42:58;1.73;;;1.20;;
50815;SDS011;39717;47.324;8.788;2023-05-10T09:45:25;2.97;;;1.20;;
50815;SDS011;39717;47.324;8.788;2023-05-10T09:47:51;1.47;;;1.37;;
50815;SDS011;39717;47.324;8.788;2023-05-10T09:50:18;1.60;;;1.40;;
50815;SDS011;39717;47.324;8.788;2023-05-10T09:55:16;2.00;;;1.80;;
50815;SDS011;39717;47.324;8.788;2023-05-10T09:57:43;1.90;;;1.63;;
50815;SDS011;39717;47.324;8.788;2023-05-10T10:00:10;2.37;;;1.43;;
50815;SDS011;39717;47.324;8.788;2023-05-10T10:02:38;1.87;;;1.63;;
50815;SDS011;39717;47.324;8.788;2023-05-10T10:05:06;1.63;;;1.53;;
50815;SDS011;39717;47.324;8.788;2023-05-10T10:07:32;1.73;;;1.60;;
50815;SDS011;39717;47.324;8.788;2023-05-10T10:09:58;1.93;;;1.83;;
50815;SDS011;39717;47.324;8.788;2023-05-10T10:12:25;1.70;;;1.60;;
50815;SDS011;39717;47.324;8.788;2023-05-10T10:14:52;2.40;;;1.50;;
50815;SDS011;39717;47.324;8.788;2023-05-10T10:17:18;1.63;;;1.53;;
50815;SDS011;39717;47.324;8.788;2023-05-10T10:19:45;2.07;;;1.60;;
50815;SDS011;39717;47.324;8.788;2023-05-10T10:22:11;1.83;;;1.73;;
50815;SDS011;39717;47.324;8.788;2023-05-10T10:24:41;4.17;;;2.00;;
50815;SDS011;39717;47.324;8.788;2023-05-10T10:27:09;2.07;;;1.67;;
50815;SDS011;39717;47.324;8.788;2023-05-10T10:29:52;1.53;;;1.43;;
50815;SDS011;39717;47.324;8.788;2023-05-10T10:32:28;2.03;;;1.73;;
50815;SDS011;39717;47.324;8.788;2023-05-10T10:34:56;2.07;;;1.57;;
50815;SDS011;39717;47.324;8.788;2023-05-10T10:37:23;1.53;;;1.43;;
50815;SDS011;39717;47.324;8.788;2023-05-10T10:39:50;1.70;;;1.60;;
50815;SDS011;39717;47.324;8.788;2023-05-10T10:42:43;1.67;;;1.57;;
50815;SDS011;39717;47.324;8.788;2023-05-10T10:45:11;3.80;;;1.60;;
50815;SDS011;39717;47.324;8.788;2023-05-10T10:47:38;1.60;;;1.40;;
50815;SDS011;39717;47.324;8.788;2023-05-10T10:50:05;2.30;;;1.63;;
50815;SDS011;39717;47.324;8.788;2023-05-10T10:52:34;4.03;;;1.70;;
50815;SDS011;39717;47.324;8.788;2023-05-10T10:55:07;1.70;;;1.60;;
50815;SDS011;39717;47.324;8.788;2023-05-10T11:03:08;1.50;;;1.40;;
50815;SDS011;39717;47.324;8.788;2023-05-10T11:05:43;3.23;;;1.60;;
50815;SDS011;39717;47.324;8.788;2023-05-10T11:11:16;3.70;;;1.77;;
50815;SDS011;39717;47.324;8.788;2023-05-10T11:13:45;1.40;;;1.30;;
50815;SDS011;39717;47.324;8.788;2023-05-10T11:16:16;1.30;;;1.03;;
50815;SDS011;39717;47.324;8.788;2023-05-10T11:21:28;1.90;;;1.80;;
50815;SDS011;39717;47.324;8.788;2023-05-10T11:23:56;1.60;;;1.50;;
50815;SDS011;39717;47.324;8.788;2023-05-10T11:26:23;1.50;;;1.40;;
50815;SDS011;39717;47.324;8.788;2023-05-10T11:28:52;1.27;;;1.17;;
50815;SDS011;39717;47.324;8.788;2023-05-10T11:31:20;1.30;;;1.20;;
50815;SDS011;39717;47.324;8.788;2023-05-10T11:33:47;1.50;;;1.40;;
50815;SDS011;39717;47.324;8.788;2023-05-10T11:36:17;1.83;;;1.30;;
50815;SDS011;39717;47.324;8.788;2023-05-10T11:38:45;1.60;;;1.50;;
50815;SDS011;39717;47.324;8.788;2023-05-10T11:41:12;3.53;;;1.60;;
50815;SDS011;39717;47.324;8.788;2023-05-10T11:43:39;3.27;;;1.70;;
50815;SDS011;39717;47.324;8.788;2023-05-10T11:46:06;1.67;;;1.57;;
50815;SDS011;39717;47.324;8.788;2023-05-10T11:48:33;1.73;;;1.50;;
50815;SDS011;39717;47.324;8.788;2023-05-10T11:51:00;1.87;;;1.30;;
50815;SDS011;39717;47.324;8.788;2023-05-10T11:53:27;1.67;;;1.57;;
50815;SDS011;39717;47.324;8.788;2023-05-10T11:55:53;2.13;;;1.60;;
50815;SDS011;39717;47.324;8.788;2023-05-10T11:58:21;1.60;;;1.30;;
50815;SDS011;39717;47.324;8.788;2023-05-10T12:00:48;1.90;;;1.43;;
50815;SDS011;39717;47.324;8.788;2023-05-10T12:03:15;1.83;;;1.53;;
50815;SDS011;39717;47.324;8.788;2023-05-10T12:05:41;1.53;;;1.40;;
50815;SDS011;39717;47.324;8.788;2023-05-10T12:08:14;1.60;;;1.40;;
50815;SDS011;39717;47.324;8.788;2023-05-10T12:10:40;1.60;;;1.37;;
50815;SDS011;39717;47.324;8.788;2023-05-10T12:13:13;1.17;;;1.07;;
50815;SDS011;39717;47.324;8.788;2023-05-10T12:15:40;2.47;;;1.70;;
50815;SDS011;39717;47.324;8.788;2023-05-10T12:18:10;1.73;;;1.30;;
50815;SDS011;39717;47.324;8.788;2023-05-10T12:20:37;1.83;;;1.50;;
50815;SDS011;39717;47.324;8.788;2023-05-10T12:23:04;3.13;;;1.40;;
50815;SDS011;39717;47.324;8.788;2023-05-10T12:25:34;3.10;;;1.40;;
50815;SDS011;39717;47.324;8.788;2023-05-10T12:28:02;3.13;;;2.00;;
50815;SDS011;39717;47.324;8.788;2023-05-10T12:30:30;2.43;;;1.50;;
50815;SDS011;39717;47.324;8.788;2023-05-10T12:35:45;2.93;;;1.40;;
50815;SDS011;39717;47.324;8.788;2023-05-10T12:40:50;2.03;;;1.40;;
50815;SDS011;39717;47.324;8.788;2023-05-10T12:43:17;1.53;;;1.43;;
50815;SDS011;39717;47.324;8.788;2023-05-10T12:45:43;1.70;;;1.60;;
50815;SDS011;39717;47.324;8.788;2023-05-10T12:48:13;1.73;;;1.63;;
50815;SDS011;39717;47.324;8.788;2023-05-10T12:50:39;2.27;;;1.80;;
50815;SDS011;39717;47.324;8.788;2023-05-10T12:53:06;1.60;;;1.30;;
50815;SDS011;39717;47.324;8.788;2023-05-10T12:55:32;2.47;;;1.57;;
50815;SDS011;39717;47.324;8.788;2023-05-10T12:57:59;2.63;;;1.67;;
50815;SDS011;39717;47.324;8.788;2023-05-10T13:00:25;1.57;;;1.40;;
50815;SDS011;39717;47.324;8.788;2023-05-10T13:02:52;5.03;;;1.97;;
50815;SDS011;39717;47.324;8.788;2023-05-10T13:05:18;1.60;;;1.50;;
50815;SDS011;39717;47.324;8.788;2023-05-10T13:07:44;2.23;;;1.70;;
50815;SDS011;39717;47.324;8.788;2023-05-10T13:10:10;1.80;;;1.70;;
50815;SDS011;39717;47.324;8.788;2023-05-10T13:12:36;1.70;;;1.60;;
50815;SDS011;39717;47.324;8.788;2023-05-10T13:15:03;1.40;;;1.30;;
50815;SDS011;39717;47.324;8.788;2023-05-10T13:17:29;1.63;;;1.33;;
50815;SDS011;39717;47.324;8.788;2023-05-10T13:19:55;1.53;;;1.43;;
50815;SDS011;39717;47.324;8.788;2023-05-10T13:22:21;4.20;;;1.60;;
50815;SDS011;39717;47.324;8.788;2023-05-10T13:24:48;1.90;;;1.50;;
50815;SDS011;39717;47.324;8.788;2023-05-10T13:27:14;2.60;;;1.87;;
50815;SDS011;39717;47.324;8.788;2023-05-10T13:29:40;1.60;;;1.23;;
50815;SDS011;39717;47.324;8.788;2023-05-10T13:32:06;1.60;;;1.50;;
50815;SDS011;39717;47.324;8.788;2023-05-10T13:34:32;1.70;;;1.60;;
50815;SDS011;39717;47.324;8.788;2023-05-10T13:37:00;1.70;;;1.50;;
50815;SDS011;39717;47.324;8.788;2023-05-10T13:39:27;3.07;;;1.80;;
50815;SDS011;39717;47.324;8.788;2023-05-10T13:41:56;2.20;;;1.70;;
50815;SDS011;39717;47.324;8.788;2023-05-10T13:44:22;1.70;;;1.60;;
50815;SDS011;39717;47.324;8.788;2023-05-10T13:46:48;2.80;;;1.60;;
50815;SDS011;39717;47.324;8.788;2023-05-10T13:49:14;1.90;;;1.40;;
50815;SDS011;39717;47.324;8.788;2023-05-10T13:51:42;1.93;;;1.73;;
50815;SDS011;39717;47.324;8.788;2023-05-10T13:54:08;1.97;;;1.87;;
50815;SDS011;39717;47.324;8.788;2023-05-10T13:56:34;4.63;;;1.87;;
50815;SDS011;39717;47.324;8.788;2023-05-10T13:59:00;1.80;;;1.60;;
50815;SDS011;39717;47.324;8.788;2023-05-10T14:01:27;1.97;;;1.77;;
50815;SDS011;39717;47.324;8.788;2023-05-10T14:03:53;4.70;;;1.77;;
50815;SDS011;39717;47.324;8.788;2023-05-10T14:06:19;2.23;;;2.00;;
50815;SDS011;39717;47.324;8.788;2023-05-10T14:08:45;2.40;;;1.73;;
50815;SDS011;39717;47.324;8.788;2023-05-10T14:11:11;1.93;;;1.70;;
50815;SDS011;39717;47.324;8.788;2023-05-10T14:13:38;1.63;;;1.50;;
50815;SDS011;39717;47.324;8.788;2023-05-10T14:16:05;2.73;;;1.33;;
50815;SDS011;39717;47.324;8.788;2023-05-10T14:18:31;1.43;;;1.33;;
50815;SDS011;39717;47.324;8.788;2023-05-10T14:20:57;1.70;;;1.53;;
50815;SDS011;39717;47.324;8.788;2023-05-10T14:23:23;4.70;;;1.47;;
50815;SDS011;39717;47.324;8.788;2023-05-10T14:25:52;3.40;;;1.67;;
50815;SDS011;39717;47.324;8.788;2023-05-10T14:28:19;1.63;;;1.40;;
50815;SDS011;39717;47.324;8.788;2023-05-10T14:30:45;1.30;;;1.20;;
50815;SDS011;39717;47.324;8.788;2023-05-10T14:33:12;1.57;;;1.47;;
50815;SDS011;39717;47.324;8.788;2023-05-10T14:35:38;1.50;;;1.30;;
50815;SDS011;39717;47.324;8.788;2023-05-10T14:38:05;1.30;;;1.20;;
50815;SDS011;39717;47.324;8.788;2023-05-10T14:40:31;1.63;;;1.30;;
50815;SDS011;39717;47.324;8.788;2023-05-10T14:42:58;1.60;;;1.40;;
50815;SDS011;39717;47.324;8.788;2023-05-10T14:45:24;0.97;;;0.97;;
50815;SDS011;39717;47.324;8.788;2023-05-10T14:47:50;2.77;;;0.93;;
50815;SDS011;39717;47.324;8.788;2023-05-10T14:50:18;2.10;;;0.90;;
50815;SDS011;39717;47.324;8.788;2023-05-10T14:52:44;1.00;;;1.00;;
50815;SDS011;39717;47.324;8.788;2023-05-10T14:55:10;1.03;;;0.93;;
50815;SDS011;39717;47.324;8.788;2023-05-10T14:57:37;1.20;;;1.07;;
50815;SDS011;39717;47.324;8.788;2023-05-10T15:00:03;0.90;;;0.90;;
50815;SDS011;39717;47.324;8.788;2023-05-10T15:02:30;1.50;;;0.87;;
50815;SDS011;39717;47.324;8.788;2023-05-10T15:04:57;0.80;;;0.80;;
50815;SDS011;39717;47.324;8.788;2023-05-10T15:07:23;0.93;;;0.80;;
50815;SDS011;39717;47.324;8.788;2023-05-10T15:09:50;0.90;;;0.90;;
50815;SDS011;39717;47.324;8.788;2023-05-10T15:12:19;0.80;;;0.80;;
50815;SDS011;39717;47.324;8.788;2023-05-10T15:14:46;1.50;;;0.90;;
50815;SDS011;39717;47.324;8.788;2023-05-10T15:17:12;0.77;;;0.77;;
50815;SDS011;39717;47.324;8.788;2023-05-10T15:19:38;0.80;;;0.80;;
50815;SDS011;39717;47.324;8.788;2023-05-10T15:22:04;1.30;;;1.00;;